Terminal Aerodrome Forecast
Issued by NWS

Home | Current Version | Previous Version | Text Only | Print | Product List | Glossary Off
Versions: 1 2 3 4 5 6 7 8 9 10 11 12 13 14 15 16 17 18 19 20 21 22 23 24

087
FTUS43 KICT 031721
TAFCNU
TAF
KCNU 031721Z 0318/0418 16006KT P6SM -RA OVC035
     FM040300 13004KT 3SM -RA OVC015
     FM040500 VRB03KT 2SM -RA OVC010
     FM041200 00000KT P6SM OVC008
     FM041700 29004KT P6SM SCT050=

USA.gov is the U.S. government's official web portal to all federal, state and local government web resources and services.